Airfield :
LOGIN :

Register | Disclaimer

   EN    FR    IT 

 










Legend :    VFR   Marginal VFR   IFR   Intensive IFR   Very Intensive IFR
Visi :
Ceiling :
>= 8 km
>= 3000ft
5 to 8 km
1000 to 3000 ft
1500m to 5 km
500 to 1000 ft
800 to 1500m
200 to 500 ft
< 800m
< 200 ft
Symbols :   Thunderstorms  Fog  Heavy snow  Heavy precipitations  Wind > 20 kt
SIGMETs :     Misc.  Thunderstorms  Icing  Turbulence  Mountain Waves  Volcanic Ashes







- Airport Elevation : 200 ft


EBBL - Klein Brogel AB

CURRENT METAR :
  • 181725Z AUTO VRB02KT 9999 FEW061/// BKN150/// 04/01 Q1002 BLU

EXPIRED METARs :
  • 181655Z AUTO 27006KT 9999 BKN051/// 05/01 Q1002 BLU
  • 181625Z 27005KT 9999 FEW022 BKN032 05/01 Q1002 BLU BLU TEMPO WHT
  • 181555Z 27007KT 9999 -SHRA FEW022 BKN047 06/01 Q1002 BLU BLU TEMPO WHT
  • 181525Z 27009KT 9999 FEW020 BKN043 06/00 Q1002 BLU BLU TEMPO WHT
  • 181455Z 27009KT 9999 FEW020 BKN043 06/00 Q1002 BLU BLU TEMPO WHT

TAF TAF EBBL
Valid from the 18 at 13:00 until the 18 at 22:00 UTC


181141Z 1813/1822 26020G33KT 9999 SCT030 BKN040
TEMPO 1813/1822 5000 -SHRA SCT015 BKN025
TEMPO 1813/1822 3000 SHRA SCT008 BKN015TCU
BECMG 1814/1816 28017KT
No reported NOTAMs for that airfield.



MET'MAP, your aeronautical weather chart ! - Copyright ORBIFLY December 2007 - Disclaimer

ORBIFLY MET'MAP TEAM :

Programming & Development : Alexandra Zaïnal
Concept & Development : Baudouin d'Aumeries
Co-Development & Prog : Marc-Olivier Méhu
Technical & hardware support : Manuel Goepfert

Contact : metmap@orbifly.com




SOURCES & CREDITS :

   NOAA